createdAt,value
2022-08-09T00:00:20.255Z,20.90
2022-08-09T00:02:49.781Z,20.90
2022-08-09T00:06:15.554Z,20.90
2022-08-09T00:08:12.977Z,20.80
2022-08-09T00:11:05.978Z,20.80
2022-08-09T00:13:51.294Z,20.70
2022-08-09T00:16:26.240Z,20.70
2022-08-09T00:19:09.475Z,20.70
2022-08-09T00:21:56.089Z,20.60
2022-08-09T00:24:27.325Z,20.60
2022-08-09T00:26:56.053Z,20.60
2022-08-09T00:29:39.613Z,20.60
2022-08-09T00:32:12.994Z,20.50
2022-08-09T00:34:53.129Z,20.50
2022-08-09T00:37:20.254Z,20.40
2022-08-09T00:40:09.656Z,20.40
2022-08-09T00:44:25.872Z,20.40
2022-08-09T00:45:21.992Z,20.30
2022-08-09T00:47:49.751Z,20.30
2022-08-09T00:50:16.994Z,20.30
2022-08-09T00:52:44.261Z,20.30
2022-08-09T00:55:32.822Z,20.20
2022-08-09T00:58:00.071Z,20.20
2022-08-09T01:00:28.659Z,20.20
2022-08-09T01:03:20.354Z,20.10
2022-08-09T01:06:53.337Z,20.10
2022-08-09T01:09:48.481Z,20.10
2022-08-09T01:12:38.605Z,20.10
2022-08-09T01:15:16.918Z,20.00
2022-08-09T01:17:57.639Z,20.00
2022-08-09T01:21:00.610Z,20.00
2022-08-09T01:24:01.748Z,19.90
2022-08-09T01:27:00.106Z,19.90
2022-08-09T01:30:03.737Z,19.90
2022-08-09T01:32:38.937Z,19.90
2022-08-09T01:35:28.631Z,19.80
2022-08-09T01:38:14.951Z,19.80
2022-08-09T01:41:05.324Z,19.80
2022-08-09T01:43:41.888Z,19.70
2022-08-09T01:46:24.790Z,19.70
2022-08-09T01:49:00.013Z,19.70
2022-08-09T01:51:32.406Z,19.60
2022-08-09T01:54:07.140Z,19.60
2022-08-09T01:56:39.005Z,19.60
2022-08-09T01:59:16.067Z,19.50
2022-08-09T02:01:59.810Z,19.50
2022-08-09T02:04:32.644Z,19.50
2022-08-09T02:08:34.675Z,19.50
2022-08-09T02:10:28.624Z,19.50
2022-08-09T02:13:04.243Z,19.40
2022-08-09T02:15:49.260Z,19.40
2022-08-09T02:18:26.961Z,19.40
2022-08-09T02:21:06.026Z,19.30
2022-08-09T02:23:48.675Z,19.30
2022-08-09T02:26:25.032Z,19.30
2022-08-09T02:29:05.540Z,19.30
2022-08-09T02:31:43.703Z,19.30
2022-08-09T02:34:40.259Z,19.30
2022-08-09T02:37:16.345Z,19.20
2022-08-09T02:40:01.736Z,19.20
2022-08-09T02:42:41.401Z,19.20
2022-08-09T02:45:28.902Z,19.20
2022-08-09T02:48:03.324Z,19.10
2022-08-09T02:50:38.345Z,19.20
2022-08-09T02:53:25.791Z,19.10
2022-08-09T02:55:59.155Z,19.10
2022-08-09T02:58:37.443Z,19.10
2022-08-09T03:01:10.833Z,19.00
2022-08-09T03:04:17.231Z,19.00
2022-08-09T03:06:30.479Z,19.00
2022-08-09T03:09:00.416Z,19.00
2022-08-09T03:12:04.724Z,19.00
2022-08-09T03:14:18.903Z,19.00
2022-08-09T03:16:49.994Z,19.00
2022-08-09T03:19:59.384Z,19.00
2022-08-09T03:22:12.505Z,18.90
2022-08-09T03:25:21.842Z,18.90
2022-08-09T03:27:46.740Z,18.90
2022-08-09T03:30:29.877Z,18.90
2022-08-09T03:33:18.602Z,18.90
2022-08-09T03:36:12.613Z,18.90
2022-08-09T03:38:43.598Z,18.90
2022-08-09T03:41:15.860Z,18.90
2022-08-09T03:44:03.454Z,18.80
2022-08-09T03:46:34.066Z,18.80
2022-08-09T03:49:08.777Z,18.80
2022-08-09T03:51:56.364Z,18.80
2022-08-09T03:54:38.895Z,18.80
2022-08-09T03:57:18.369Z,18.80
2022-08-09T03:59:54.751Z,18.80
2022-08-09T04:02:27.988Z,18.80
2022-08-09T04:05:05.968Z,18.70
2022-08-09T04:07:52.866Z,18.70
2022-08-09T04:10:28.764Z,18.70
2022-08-09T04:13:04.245Z,18.70
2022-08-09T04:16:18.350Z,18.70
2022-08-09T04:18:21.426Z,18.70
2022-08-09T04:20:50.822Z,18.60
2022-08-09T04:23:23.316Z,18.60
2022-08-09T04:25:54.542Z,18.60
2022-08-09T04:28:33.647Z,18.60
2022-08-09T04:31:09.712Z,18.60
2022-08-09T04:33:51.638Z,18.60
2022-08-09T04:36:26.210Z,18.60
2022-08-09T04:38:55.644Z,18.60
2022-08-09T04:41:32.001Z,18.60
2022-08-09T04:44:06.950Z,18.60
2022-08-09T04:46:57.586Z,18.60
2022-08-09T04:49:40.638Z,18.60
2022-08-09T04:52:22.142Z,18.60
2022-08-09T04:55:04.151Z,18.60
2022-08-09T04:57:54.432Z,18.60
2022-08-09T05:00:22.047Z,18.60
2022-08-09T05:02:52.696Z,18.60
2022-08-09T05:05:31.852Z,18.60
2022-08-09T05:08:08.644Z,18.50
2022-08-09T05:10:36.604Z,18.60
2022-08-09T05:13:04.215Z,18.60
2022-08-09T05:15:39.434Z,18.60
2022-08-09T05:18:38.008Z,18.60
2022-08-09T05:21:02.788Z,18.60
2022-08-09T05:23:54.028Z,18.70
2022-08-09T05:26:36.355Z,18.70
2022-08-09T05:29:17.551Z,18.70
2022-08-09T05:32:00.285Z,18.70
2022-08-09T05:34:31.886Z,18.70
2022-08-09T05:37:07.362Z,18.70
2022-08-09T05:39:43.690Z,18.80
2022-08-09T05:42:17.469Z,18.80
2022-08-09T05:44:54.099Z,18.80
2022-08-09T05:47:25.190Z,18.90
2022-08-09T05:50:23.734Z,18.90
2022-08-09T05:52:44.505Z,19.00
2022-08-09T05:55:23.981Z,19.00
2022-08-09T05:57:57.183Z,19.10
2022-08-09T06:00:28.991Z,19.10
2022-08-09T06:02:58.799Z,19.10
2022-08-09T06:05:50.288Z,19.10
2022-08-09T06:08:19.431Z,19.20
2022-08-09T06:10:53.925Z,19.20
2022-08-09T06:13:21.764Z,19.30
2022-08-09T06:15:51.490Z,19.30
2022-08-09T06:18:23.944Z,19.40
2022-08-09T06:20:57.838Z,19.50
2022-08-09T06:23:58.661Z,19.60
2022-08-09T06:26:22.503Z,19.60
2022-08-09T06:29:00.298Z,19.70
2022-08-09T06:31:39.221Z,19.70
2022-08-09T06:34:08.066Z,19.80
2022-08-09T06:36:37.448Z,19.90
2022-08-09T06:39:12.667Z,20.00
2022-08-09T06:42:08.530Z,20.10
2022-08-09T06:44:27.834Z,20.10
2022-08-09T06:46:55.221Z,20.20
2022-08-09T06:49:44.909Z,20.30
2022-08-09T06:52:11.976Z,20.40
2022-08-09T06:54:41.152Z,20.40
2022-08-09T06:57:08.691Z,20.60
2022-08-09T07:00:56.019Z,20.60
2022-08-09T07:02:30.852Z,20.80
2022-08-09T07:05:00.571Z,20.90
2022-08-09T07:07:58.675Z,21.00
2022-08-09T07:10:22.501Z,21.20
2022-08-09T07:12:57.281Z,21.40
2022-08-09T07:16:34.989Z,21.60
2022-08-09T07:18:14.315Z,21.90
2022-08-09T07:20:43.759Z,22.20
2022-08-09T07:23:18.727Z,22.50
2022-08-09T07:25:52.140Z,22.80
2022-08-09T07:28:26.400Z,23.00
2022-08-09T07:30:56.053Z,23.40
2022-08-09T07:33:23.450Z,23.70
2022-08-09T07:35:53.982Z,23.90
2022-08-09T07:38:23.496Z,24.20
2022-08-09T07:41:08.388Z,24.50
2022-08-09T07:43:40.990Z,24.70
2022-08-09T07:46:10.773Z,25.00
2022-08-09T07:48:44.351Z,25.20
2022-08-09T07:52:06.048Z,25.40
2022-08-09T07:54:08.640Z,25.60
2022-08-09T07:56:45.177Z,25.80
2022-08-09T07:59:25.226Z,26.00
2022-08-09T08:02:01.750Z,26.20
2022-08-09T08:04:32.118Z,26.30
2022-08-09T08:07:14.820Z,26.40
2022-08-09T08:09:54.801Z,26.50
2022-08-09T08:12:29.392Z,26.60
2022-08-09T08:14:59.604Z,26.70
2022-08-09T08:17:53.971Z,26.70
2022-08-09T08:20:14.708Z,26.80
2022-08-09T08:22:42.248Z,26.90
2022-08-09T08:25:13.665Z,27.00
2022-08-09T08:27:43.307Z,26.90
2022-08-09T08:30:13.926Z,26.90
2022-08-09T08:32:53.579Z,26.80
2022-08-09T08:35:22.446Z,26.70
2022-08-09T08:37:59.697Z,26.60
2022-08-09T08:40:35.696Z,26.50
2022-08-09T08:43:08.679Z,26.50
2022-08-09T08:46:03.761Z,26.60
2022-08-09T08:48:37.923Z,26.70
2022-08-09T08:51:07.195Z,26.90
2022-08-09T08:53:37.306Z,27.00
2022-08-09T08:56:07.114Z,27.20
2022-08-09T08:58:36.191Z,27.30
2022-08-09T09:01:08.755Z,27.50
2022-08-09T09:03:50.546Z,27.60
2022-08-09T09:06:19.618Z,27.70
2022-08-09T09:08:52.336Z,27.90
2022-08-09T09:11:21.166Z,28.10
2022-08-09T09:13:56.645Z,28.30
2022-08-09T09:16:34.753Z,28.40
2022-08-09T09:22:15.846Z,28.80
2022-08-09T09:24:49.176Z,28.90
2022-08-09T09:28:06.556Z,29.10
2022-08-09T09:30:34.569Z,29.20
2022-08-09T09:33:17.014Z,29.30
2022-08-09T09:36:02.190Z,29.40
2022-08-09T09:38:56.942Z,29.60
2022-08-09T09:41:25.414Z,29.70
2022-08-09T09:44:12.513Z,29.80
2022-08-09T09:46:50.750Z,30.00
2022-08-09T09:49:56.071Z,30.20
2022-08-09T09:52:16.266Z,30.30
2022-08-09T09:55:24.137Z,30.40
2022-08-09T09:58:17.246Z,30.60
2022-08-09T10:00:59.140Z,30.70
2022-08-09T10:04:03.228Z,30.70
2022-08-09T10:06:43.599Z,30.80
2022-08-09T10:09:22.905Z,30.80
2022-08-09T10:12:12.864Z,30.80
2022-08-09T10:14:51.502Z,30.80
2022-08-09T10:17:40.408Z,30.80
2022-08-09T10:20:35.695Z,30.80
2022-08-09T10:23:20.208Z,30.80
2022-08-09T10:26:06.921Z,30.80
2022-08-09T10:28:40.210Z,30.80
2022-08-09T10:34:08.038Z,30.90
2022-08-09T10:36:39.995Z,31.00
2022-08-09T10:39:15.972Z,31.10
2022-08-09T10:41:47.639Z,31.20
2022-08-09T10:44:23.090Z,31.20
2022-08-09T10:48:14.241Z,31.30
2022-08-09T10:50:32.764Z,31.40
2022-08-09T10:53:46.796Z,31.50
2022-08-09T10:56:26.568Z,31.60
2022-08-09T10:58:58.014Z,31.80
2022-08-09T11:03:15.880Z,31.80
2022-08-09T11:04:32.673Z,31.90
2022-08-09T11:07:00.969Z,32.00
2022-08-09T11:09:47.462Z,32.00
2022-08-09T11:12:29.356Z,32.10
2022-08-09T11:15:23.956Z,32.10
2022-08-09T11:18:02.660Z,32.10
2022-08-09T11:20:49.910Z,32.10
2022-08-09T11:23:24.114Z,32.20
2022-08-09T11:25:57.646Z,32.30
2022-08-09T11:28:56.351Z,32.30
2022-08-09T11:31:52.779Z,32.40
2022-08-09T11:34:42.959Z,32.50
2022-08-09T11:37:22.758Z,32.60
2022-08-09T11:40:07.343Z,32.80
2022-08-09T11:42:43.953Z,32.90
2022-08-09T11:45:43.637Z,33.00
2022-08-09T11:48:26.495Z,33.10
2022-08-09T11:52:36.712Z,33.20
2022-08-09T11:53:58.999Z,33.30
2022-08-09T11:56:47.740Z,33.50
2022-08-09T11:59:29.937Z,33.60
2022-08-09T12:02:17.753Z,33.60
2022-08-09T12:04:45.891Z,33.60
2022-08-09T12:07:14.296Z,33.70
2022-08-09T12:09:50.364Z,33.80
2022-08-09T12:12:20.483Z,33.90
2022-08-09T12:15:07.950Z,33.90
2022-08-09T12:17:43.642Z,33.80
2022-08-09T12:20:27.857Z,33.80
2022-08-09T12:23:00.148Z,33.80
2022-08-09T12:25:37.251Z,33.80
2022-08-09T12:29:10.128Z,33.80
2022-08-09T12:31:30.893Z,33.90
2022-08-09T12:34:14.408Z,33.90
2022-08-09T12:36:53.068Z,34.00
2022-08-09T12:39:26.609Z,34.10
2022-08-09T12:41:55.032Z,34.20
2022-08-09T12:44:24.520Z,34.30
2022-08-09T12:46:52.206Z,34.30
2022-08-09T12:49:22.296Z,34.40
2022-08-09T12:52:02.150Z,34.50
2022-08-09T12:55:03.159Z,34.50
2022-08-09T12:57:47.116Z,34.50
2022-08-09T13:00:25.821Z,34.50
2022-08-09T13:03:00.444Z,34.60
2022-08-09T13:06:10.638Z,34.70
2022-08-09T13:08:40.342Z,34.80
2022-08-09T13:11:13.286Z,34.90
2022-08-09T13:14:42.562Z,35.00
2022-08-09T13:16:46.692Z,35.10
2022-08-09T13:20:10.183Z,35.10
2022-08-09T13:23:05.164Z,35.10
2022-08-09T13:25:55.127Z,35.10
2022-08-09T13:28:33.891Z,35.10
2022-08-09T13:32:14.908Z,35.10
2022-08-09T13:34:00.421Z,35.00
2022-08-09T13:36:42.485Z,35.00
2022-08-09T13:41:55.681Z,35.00
2022-08-09T13:42:11.837Z,35.00
2022-08-09T13:44:41.953Z,35.00
2022-08-09T13:47:27.452Z,35.00
2022-08-09T13:50:12.712Z,35.00
2022-08-09T13:52:47.822Z,35.10
2022-08-09T13:55:17.840Z,35.20
2022-08-09T13:57:56.357Z,35.20
2022-08-09T14:00:28.537Z,35.20
2022-08-09T14:03:02.828Z,35.30
2022-08-09T14:05:56.957Z,35.40
2022-08-09T14:08:30.761Z,35.50
2022-08-09T14:11:00.496Z,35.60
2022-08-09T14:14:22.680Z,35.60
2022-08-09T14:16:28.565Z,35.60
2022-08-09T14:18:57.372Z,35.70
2022-08-09T14:21:29.323Z,35.60
2022-08-09T14:23:57.709Z,35.60
2022-08-09T14:26:32.524Z,35.60
2022-08-09T14:29:25.831Z,35.60
2022-08-09T14:31:55.561Z,35.50
2022-08-09T14:34:32.034Z,35.60
2022-08-09T14:37:07.462Z,35.50
2022-08-09T14:39:46.182Z,35.50
2022-08-09T14:42:30.565Z,35.50
2022-08-09T14:46:39.643Z,35.60
2022-08-09T14:47:58.924Z,35.60
2022-08-09T14:50:33.089Z,35.60
2022-08-09T14:53:11.607Z,35.70
2022-08-09T14:55:49.880Z,35.70
2022-08-09T14:58:18.445Z,35.70
2022-08-09T15:01:05.480Z,35.80
2022-08-09T15:03:33.136Z,35.80
2022-08-09T15:06:03.986Z,35.90
2022-08-09T15:08:31.642Z,35.80
2022-08-09T15:11:01.206Z,35.90
2022-08-09T15:13:48.502Z,35.90
2022-08-09T15:16:21.794Z,36.00
2022-08-09T15:18:52.249Z,36.10
2022-08-09T15:21:57.801Z,36.20
2022-08-09T15:24:12.765Z,36.30
2022-08-09T15:26:45.963Z,36.30
2022-08-09T15:30:57.251Z,36.30
2022-08-09T15:32:02.181Z,36.30
2022-08-09T15:34:32.769Z,36.20
2022-08-09T15:37:23.861Z,36.10
2022-08-09T15:39:55.014Z,36.00
2022-08-09T15:42:23.423Z,36.00
2022-08-09T15:44:51.545Z,35.90
2022-08-09T15:47:31.678Z,35.80
2022-08-09T15:50:13.148Z,35.80
2022-08-09T15:52:42.215Z,35.60
2022-08-09T15:55:24.738Z,35.60
2022-08-09T15:57:52.518Z,35.50
2022-08-09T16:00:26.102Z,35.40
2022-08-09T16:02:56.731Z,35.40
2022-08-09T16:05:47.673Z,35.30
2022-08-09T16:08:29.950Z,35.20
2022-08-09T16:11:01.652Z,35.20
2022-08-09T16:14:04.782Z,35.20
2022-08-09T16:16:26.303Z,35.20
2022-08-09T16:18:55.835Z,35.20
2022-08-09T16:21:26.133Z,35.20
2022-08-09T16:23:58.359Z,35.20
2022-08-09T16:26:33.518Z,35.20
2022-08-09T16:29:11.465Z,35.20
2022-08-09T16:32:18.668Z,35.10
2022-08-09T16:34:55.839Z,35.10
2022-08-09T16:37:55.380Z,35.00
2022-08-09T16:40:13.456Z,34.90
2022-08-09T16:42:45.522Z,34.80
2022-08-09T16:45:18.840Z,34.70
2022-08-09T16:48:42.505Z,34.70
2022-08-09T16:50:38.149Z,34.70
2022-08-09T16:53:05.966Z,34.60
2022-08-09T16:55:59.923Z,34.60
2022-08-09T16:58:21.053Z,34.50
2022-08-09T17:00:49.315Z,34.50
2022-08-09T17:03:21.603Z,34.50
2022-08-09T17:06:07.643Z,34.40
2022-08-09T17:08:47.005Z,34.40
2022-08-09T17:11:40.029Z,34.30
2022-08-09T17:14:25.606Z,34.30
2022-08-09T17:16:59.533Z,34.20
2022-08-09T17:20:05.958Z,34.10
2022-08-09T17:22:33.791Z,34.10
2022-08-09T17:25:11.958Z,34.00
2022-08-09T17:27:49.573Z,33.90
2022-08-09T17:30:25.549Z,33.80
2022-08-09T17:33:05.087Z,33.70
2022-08-09T17:35:44.940Z,33.60
2022-08-09T17:38:30.668Z,33.50
2022-08-09T17:41:00.272Z,33.30
2022-08-09T17:43:34.657Z,33.20
2022-08-09T17:46:08.764Z,33.20
2022-08-09T17:48:51.973Z,33.10
2022-08-09T17:51:20.119Z,33.00
2022-08-09T17:53:54.926Z,32.80
2022-08-09T17:56:28.815Z,32.60
2022-08-09T17:59:03.039Z,32.30
2022-08-09T18:02:06.083Z,32.10
2022-08-09T18:04:20.380Z,31.80
2022-08-09T18:06:49.927Z,31.60
2022-08-09T18:09:41.002Z,31.40
2022-08-09T18:12:19.751Z,31.10
2022-08-09T18:14:54.982Z,30.90
2022-08-09T18:18:03.768Z,30.70
2022-08-09T18:20:57.359Z,30.50
2022-08-09T18:23:04.911Z,30.30
2022-08-09T18:25:50.285Z,30.10
2022-08-09T18:30:35.021Z,30.00
2022-08-09T18:31:08.067Z,29.90
2022-08-09T18:33:36.231Z,29.70
2022-08-09T18:36:04.351Z,29.60
2022-08-09T18:38:31.618Z,29.50
2022-08-09T18:40:58.902Z,29.40
2022-08-09T18:43:26.421Z,29.30
2022-08-09T18:46:47.501Z,29.20
2022-08-09T18:48:42.281Z,29.10
2022-08-09T18:51:10.094Z,29.00
2022-08-09T18:53:56.350Z,28.90
2022-08-09T18:56:27.871Z,28.90
2022-08-09T18:58:57.315Z,28.80
2022-08-09T19:01:25.945Z,28.70
2022-08-09T19:04:06.068Z,28.60
2022-08-09T19:06:37.679Z,28.60
2022-08-09T19:09:13.642Z,28.50
2022-08-09T19:11:58.030Z,28.40
2022-08-09T19:14:29.321Z,28.40
2022-08-09T19:16:59.747Z,28.30
2022-08-09T19:19:28.415Z,28.20
2022-08-09T19:22:08.592Z,28.20
2022-08-09T19:25:09.082Z,28.10
2022-08-09T19:27:28.685Z,28.00
2022-08-09T19:30:22.403Z,28.00
2022-08-09T19:32:44.384Z,27.90
2022-08-09T19:35:11.704Z,27.80
2022-08-09T19:37:52.810Z,27.70
2022-08-09T19:40:22.749Z,27.70
2022-08-09T19:42:50.314Z,27.60
2022-08-09T19:45:18.596Z,27.50
2022-08-09T19:47:45.968Z,27.50
2022-08-09T19:50:49.674Z,27.40
2022-08-09T19:53:02.519Z,27.40
2022-08-09T19:56:02.163Z,27.30
2022-08-09T19:58:30.207Z,27.20
2022-08-09T20:00:58.349Z,27.10
2022-08-09T20:04:10.484Z,27.10
2022-08-09T20:06:23.786Z,27.00
2022-08-09T20:08:57.755Z,26.90
2022-08-09T20:11:33.726Z,26.90
2022-08-09T20:14:13.143Z,26.80
2022-08-09T20:16:53.353Z,26.70
2022-08-09T20:19:48.775Z,26.70
2022-08-09T20:22:14.454Z,26.60
2022-08-09T20:24:43.189Z,26.50
2022-08-09T20:27:21.645Z,26.50
2022-08-09T20:29:49.415Z,26.40
2022-08-09T20:32:42.037Z,26.30
2022-08-09T20:35:06.608Z,26.20
2022-08-09T20:38:20.382Z,26.20
2022-08-09T20:40:26.367Z,26.10
2022-08-09T20:43:12.050Z,26.10
2022-08-09T20:45:56.825Z,26.00
2022-08-09T20:48:25.937Z,25.90
2022-08-09T20:50:58.389Z,25.90
2022-08-09T20:53:36.822Z,25.80
2022-08-09T20:56:20.271Z,25.70
2022-08-09T20:58:57.790Z,25.70
2022-08-09T21:01:34.652Z,25.60
2022-08-09T21:05:50.880Z,25.60
2022-08-09T21:07:12.043Z,25.50
2022-08-09T21:09:56.153Z,25.50
2022-08-09T21:12:32.232Z,25.40
2022-08-09T21:15:02.683Z,25.30
2022-08-09T21:18:21.374Z,25.30
2022-08-09T21:20:22.791Z,25.30
2022-08-09T21:22:54.839Z,25.20
2022-08-09T21:25:44.271Z,25.10
2022-08-09T21:28:33.158Z,25.10
2022-08-09T21:31:17.697Z,25.10
2022-08-09T21:33:52.743Z,25.00
2022-08-09T21:36:29.003Z,25.00
2022-08-09T21:38:59.358Z,24.90
2022-08-09T21:42:03.604Z,24.90
2022-08-09T21:44:33.918Z,24.80
2022-08-09T21:47:04.909Z,24.80
2022-08-09T21:49:40.032Z,24.80
2022-08-09T21:52:17.982Z,24.70
2022-08-09T21:55:03.013Z,24.70
2022-08-09T21:57:39.148Z,24.70
2022-08-09T22:00:33.271Z,24.60
2022-08-09T22:03:05.823Z,24.60
2022-08-09T22:05:37.360Z,24.50
2022-08-09T22:08:13.856Z,24.50
2022-08-09T22:11:00.602Z,24.50
2022-08-09T22:13:34.602Z,24.40
2022-08-09T22:16:08.321Z,24.40
2022-08-09T22:18:43.966Z,24.30
2022-08-09T22:21:45.309Z,24.30
2022-08-09T22:24:17.167Z,24.20
2022-08-09T22:26:51.421Z,24.10
2022-08-09T22:29:19.407Z,24.10
2022-08-09T22:31:56.204Z,24.00
2022-08-09T22:34:27.046Z,23.90
2022-08-09T22:36:59.273Z,23.90
2022-08-09T22:39:57.157Z,23.80
2022-08-09T22:42:22.172Z,23.80
2022-08-09T22:48:04.621Z,23.70
2022-08-09T22:48:11.357Z,23.60
2022-08-09T22:50:31.196Z,23.60
2022-08-09T22:52:59.816Z,23.50
2022-08-09T22:56:06.524Z,23.50
2022-08-09T22:58:20.256Z,23.40
2022-08-09T23:01:02.571Z,23.40
2022-08-09T23:04:03.378Z,23.40
2022-08-09T23:06:35.204Z,23.30
2022-08-09T23:09:07.466Z,23.30
2022-08-09T23:11:35.175Z,23.20
2022-08-09T23:14:03.664Z,23.20
2022-08-09T23:16:31.607Z,23.20
2022-08-09T23:18:59.005Z,23.10
2022-08-09T23:21:30.062Z,23.10
2022-08-09T23:24:05.995Z,23.10
2022-08-09T23:26:39.026Z,23.00
2022-08-09T23:29:10.158Z,23.00
2022-08-09T23:31:37.835Z,23.00
2022-08-09T23:34:05.172Z,22.90
2022-08-09T23:36:35.206Z,22.90
2022-08-09T23:39:05.181Z,22.90
2022-08-09T23:41:32.877Z,22.80
2022-08-09T23:44:02.003Z,22.80
2022-08-09T23:46:30.539Z,22.80
2022-08-09T23:48:59.357Z,22.70
2022-08-09T23:51:28.118Z,22.70
2022-08-09T23:54:02.528Z,22.70
2022-08-09T23:56:52.422Z,22.60
2022-08-09T23:59:23.218Z,22.60
